Time;durP1;ratioP1;P1;durP2;ratioP2;P2;SDS_P1;SDS_P2;PMS_P1;PMS_P2;Temp;Humidity;BMP_temperature;BMP_pressure;BME280_temperature;BME280_humidity;BME280_pressure;Samples;Min_cycle;Max_cycle;Signal;HPM_P1;HPM_P2
2021/12/06 00:01:54;;;;;;;27.10;17.88;;;2.80;99.90;;;;;;2104358;67;20178;-72
2021/12/06 00:04:38;;;;;;;26.73;17.52;;;2.80;99.90;;;;;;2104908;67;20229;-72
2021/12/06 00:07:28;;;;;;;32.78;19.20;;;2.80;99.90;;;;;;2102908;67;20403;-71
2021/12/06 00:10:12;;;;;;;27.02;18.25;;;2.80;99.90;;;;;;2116730;67;20240;-73
2021/12/06 00:12:56;;;;;;;27.73;18.13;;;2.80;99.90;;;;;;2105308;67;20267;-73
2021/12/06 00:15:43;;;;;;;;;;;3.10;99.90;;;;;;2109695;67;20178;-73
2021/12/06 00:18:26;;;;;;;27.63;18.58;;;2.80;99.90;;;;;;2103722;67;20070;-73
2021/12/06 00:21:11;;;;;;;31.17;19.30;;;2.80;99.90;;;;;;2115421;67;20169;-73
2021/12/06 00:23:55;;;;;;;32.20;19.15;;;2.80;99.90;;;;;;2112838;67;20778;-72
2021/12/06 00:26:41;;;;;;;25.95;17.85;;;2.80;99.90;;;;;;2119935;67;20181;-72
2021/12/06 00:29:25;;;;;;;30.42;18.55;;;2.80;99.90;;;;;;2108594;67;20551;-72
2021/12/06 00:32:10;;;;;;;30.02;19.13;;;2.80;99.90;;;;;;2094540;68;20795;-73
2021/12/06 00:34:52;;;;;;;29.67;18.58;;;2.80;99.90;;;;;;2110555;67;20195;-72
2021/12/06 00:37:42;;;;;;;27.92;18.10;;;2.80;99.90;;;;;;2113653;67;20362;-73
2021/12/06 00:40:45;;;;;;;26.50;17.70;;;2.80;99.90;;;;;;2107225;67;20264;-72
2021/12/06 00:43:27;;;;;;;27.67;17.60;;;2.80;99.90;;;;;;2118436;67;20169;-73
2021/12/06 00:46:09;;;;;;;30.17;19.15;;;2.80;99.90;;;;;;2116520;67;20364;-72
2021/12/06 00:48:51;;;;;;;24.83;17.25;;;2.70;99.90;;;;;;2106142;67;20675;-72
2021/12/06 00:51:33;;;;;;;31.58;19.30;;;2.40;99.90;;;;;;2097313;68;20281;-73
2021/12/06 00:54:15;;;;;;;28.92;18.92;;;2.80;99.90;;;;;;2094719;68;20245;-72
2021/12/06 00:57:03;;;;;;;31.50;19.50;;;2.80;99.90;;;;;;2090490;68;20691;-72
2021/12/06 00:59:47;;;;;;;30.17;19.33;;;3.50;99.90;;;;;;2100677;67;20343;-73
2021/12/06 01:02:28;;;;;;;29.27;18.45;;;2.70;99.90;;;;;;2094551;68;20783;-72
2021/12/06 01:05:11;;;;;;;27.17;17.55;;;2.80;99.90;;;;;;2090527;68;20427;-72
2021/12/06 01:07:54;;;;;;;29.13;18.55;;;2.80;99.90;;;;;;2099790;67;20217;-71
2021/12/06 01:10:38;;;;;;;33.80;18.67;;;2.80;99.90;;;;;;2111029;67;20182;-73
2021/12/06 01:13:21;;;;;;;27.48;17.23;;;2.80;99.90;;;;;;2101528;67;20279;-72
2021/12/06 01:16:07;;;;;;;29.63;19.13;;;2.80;99.90;;;;;;2090664;68;20251;-72
2021/12/06 01:18:51;;;;;;;28.10;18.13;;;2.90;99.90;;;;;;2105309;67;20262;-72
2021/12/06 01:24:29;;;;;;;32.30;20.30;;;2.90;99.90;;;;;;2125073;67;20320;-73
2021/12/06 01:33:05;;;;;;;34.22;20.10;;;2.90;99.90;;;;;;2101390;67;20204;-71
2021/12/06 01:42:10;;;;;;;28.85;18.40;;;2.80;99.90;;;;;;2124960;67;20238;-73
2021/12/06 01:44:56;;;;;;;32.85;18.02;;;3.20;99.90;;;;;;2115445;67;20364;-71
2021/12/06 01:47:39;;;;;;;33.60;19.48;;;2.90;99.90;;;;;;2106788;67;20686;-71
2021/12/06 01:50:25;;;;;;;31.83;18.52;;;2.90;99.90;;;;;;2097530;68;20274;-70
2021/12/06 01:53:16;;;;;;;33.25;19.70;;;2.90;99.90;;;;;;2106500;67;20337;-71
2021/12/06 01:55:58;;;;;;;31.60;19.60;;;2.80;99.90;;;;;;2097662;67;20919;-71
2021/12/06 01:58:43;;;;;;;30.25;18.98;;;2.90;99.90;;;;;;2099975;67;20715;-71
2021/12/06 02:01:26;;;;;;;33.47;20.73;;;2.80;99.90;;;;;;2115696;67;20594;-71
2021/12/06 02:04:08;;;;;;;31.80;20.63;;;2.80;99.90;;;;;;2115797;67;20249;-71
2021/12/06 02:06:50;;;;;;;30.13;18.88;;;2.80;99.90;;;;;;2115993;67;20216;-73
2021/12/06 02:09:34;;;;;;;29.33;18.95;;;2.80;99.90;;;;;;2130219;66;20179;-72
2021/12/06 02:12:22;;;;;;;30.55;19.02;;;2.80;99.90;;;;;;2130104;66;20577;-71
2021/12/06 02:15:27;;;;;;;29.52;17.85;;;2.80;99.90;;;;;;2138345;66;20191;-72
2021/12/06 02:18:26;;;;;;;36.00;20.42;;;2.80;99.90;;;;;;2128417;67;20255;-73
2021/12/06 02:21:11;;;;;;;34.92;20.13;;;2.80;99.90;;;;;;2112942;67;20267;-72
2021/12/06 02:23:55;;;;;;;35.15;19.98;;;2.90;99.90;;;;;;2113209;67;20616;-72
2021/12/06 02:26:43;;;;;;;33.45;20.55;;;2.70;99.90;;;;;;2104032;67;20200;-71
2021/12/06 02:29:24;;;;;;;35.75;19.92;;;2.80;99.90;;;;;;2102178;67;20439;-71
2021/12/06 02:32:10;;;;;;;34.35;21.08;;;3.00;99.90;;;;;;2100139;67;20675;-70
2021/12/06 02:34:54;;;;;;;;;;;2.80;99.90;;;;;;2083511;68;20829;-72
2021/12/06 02:37:36;;;;;;;43.53;22.65;;;2.80;99.90;;;;;;2094705;68;20753;-72
2021/12/06 02:40:29;;;;;;;38.53;21.73;;;2.70;99.90;;;;;;2087077;68;20184;-73
2021/12/06 02:43:16;;;;;;;35.03;22.05;;;2.70;99.90;;;;;;2103582;68;20816;-73
2021/12/06 02:46:03;;;;;;;40.22;22.38;;;2.70;99.90;;;;;;2095380;68;20187;-72
2021/12/06 02:48:48;;;;;;;40.80;22.58;;;2.70;99.90;;;;;;2105892;67;20866;-72
2021/12/06 02:51:31;;;;;;;42.30;22.75;;;3.00;99.90;;;;;;2118717;67;20220;-72
2021/12/06 02:54:20;;;;;;;39.90;22.73;;;2.80;99.90;;;;;;2126844;67;20380;-72
2021/12/06 02:59:54;;;;;;;41.97;23.08;;;2.80;99.90;;;;;;2122785;67;20883;-73
2021/12/06 03:02:38;;;;;;;38.22;22.58;;;2.70;99.90;;;;;;2101040;67;20331;-72
2021/12/06 03:05:24;;;;;;;41.25;23.33;;;2.90;99.90;;;;;;2089929;68;20424;-72
2021/12/06 03:08:11;;;;;;;41.50;22.80;;;2.70;99.90;;;;;;2103522;68;20218;-72
2021/12/06 03:10:58;;;;;;;41.80;23.92;;;2.70;99.90;;;;;;2101301;68;20886;-72
2021/12/06 03:13:46;;;;;;;46.03;24.23;;;2.70;99.90;;;;;;2097187;68;20246;-72
2021/12/06 03:16:32;;;;;;;40.70;22.42;;;2.70;99.90;;;;;;2098802;68;20186;-71
2021/12/06 03:19:16;;;;;;;42.50;23.50;;;2.80;99.90;;;;;;2094098;67;20190;-71
2021/12/06 03:21:59;;;;;;;44.35;24.05;;;2.80;99.90;;;;;;2114049;67;20375;-71
2021/12/06 03:24:43;;;;;;;;;;;2.70;99.90;;;;;;2108089;67;20175;-72
2021/12/06 03:27:25;;;;;;;37.63;23.65;;;3.10;99.90;;;;;;2104443;67;20061;-72
2021/12/06 03:30:15;;;;;;;40.28;22.75;;;2.70;99.90;;;;;;2091168;68;20650;-72
2021/12/06 03:32:57;;;;;;;38.67;21.75;;;2.70;99.90;;;;;;2100242;68;20826;-72
2021/12/06 03:35:39;;;;;;;40.30;23.40;;;2.80;99.90;;;;;;2105018;67;20161;-72
2021/12/06 03:38:21;;;;;;;38.70;23.20;;;2.70;99.90;;;;;;2117037;67;20452;-72
2021/12/06 03:41:05;;;;;;;39.38;22.85;;;2.70;99.90;;;;;;2109780;67;20364;-72
2021/12/06 03:43:48;;;;;;;44.00;23.23;;;2.70;99.90;;;;;;2097546;67;20232;-72
2021/12/06 03:46:34;;;;;;;41.15;23.00;;;2.70;99.90;;;;;;2105222;67;20343;-73
2021/12/06 03:49:17;;;;;;;41.50;24.67;;;2.70;99.90;;;;;;2107846;67;20367;-73
2021/12/06 03:51:59;;;;;;;36.50;22.92;;;2.70;99.90;;;;;;2118498;67;20313;-72
2021/12/06 03:54:42;;;;;;;44.40;24.50;;;2.70;99.90;;;;;;2118796;67;20302;-73
2021/12/06 03:57:24;;;;;;;44.45;23.55;;;2.90;99.90;;;;;;2117516;67;20218;-73
2021/12/06 04:00:08;;;;;;;38.38;24.15;;;2.70;99.90;;;;;;2110299;67;20272;-72
2021/12/06 04:02:51;;;;;;;36.47;22.67;;;2.70;99.90;;;;;;2103349;67;20307;-72
2021/12/06 04:05:32;;;;;;;41.55;22.25;;;2.80;99.90;;;;;;2104698;67;20249;-72
2021/12/06 04:08:14;;;;;;;39.25;22.02;;;2.90;99.90;;;;;;2091014;68;20187;-72
2021/12/06 04:10:56;;;;;;;37.47;21.45;;;2.80;99.90;;;;;;2098113;68;20198;-72
2021/12/06 04:13:39;;;;;;;38.58;21.08;;;2.80;99.90;;;;;;2110737;67;20351;-73
2021/12/06 04:16:24;;;;;;;40.25;23.58;;;2.80;99.90;;;;;;2104697;67;20281;-73
2021/12/06 04:19:09;;;;;;;38.65;22.60;;;2.80;99.90;;;;;;2111735;67;20768;-73
2021/12/06 04:21:50;;;;;;;37.40;22.90;;;2.80;99.90;;;;;;2113348;67;20374;-73
2021/12/06 04:24:36;;;;;;;40.25;21.77;;;2.80;99.90;;;;;;2090615;68;20765;-73
2021/12/06 04:27:21;;;;;;;39.63;21.70;;;2.80;99.90;;;;;;2101765;67;20300;-73
2021/12/06 04:30:10;;;;;;;42.80;22.33;;;2.70;99.90;;;;;;2093817;67;20323;-71
2021/12/06 04:32:54;;;;;;;39.85;23.48;;;2.80;99.90;;;;;;2098095;67;20281;-73
2021/12/06 04:35:39;;;;;;;44.65;23.83;;;2.80;99.90;;;;;;2105914;67;20188;-72
2021/12/06 04:38:21;;;;;;;40.17;22.17;;;2.80;99.90;;;;;;2113958;67;20331;-73
2021/12/06 04:41:04;;;;;;;46.38;24.35;;;2.80;99.90;;;;;;2110208;67;20177;-74
2021/12/06 04:43:47;;;;;;;40.95;23.17;;;2.80;99.90;;;;;;2094629;68;20222;-74
2021/12/06 04:46:32;;;;;;;;;;;2.80;99.90;;;;;;2093312;68;20403;-72
2021/12/06 04:49:15;;;;;;;46.25;25.55;;;2.80;99.90;;;;;;2097942;68;20204;-73
2021/12/06 04:52:00;;;;;;;41.42;23.73;;;2.80;99.90;;;;;;2098101;68;20233;-72
2021/12/06 04:54:48;;;;;;;51.58;27.60;;;2.80;99.90;;;;;;2089532;68;20624;-73
2021/12/06 04:57:43;;;;;;;41.67;23.15;;;2.80;99.90;;;;;;2102914;67;20227;-73
2021/12/06 05:00:41;;;;;;;46.45;26.20;;;2.80;99.90;;;;;;2105682;67;20465;-74
2021/12/06 05:03:23;;;;;;;44.13;25.42;;;2.80;99.90;;;;;;2104237;68;20186;-73
2021/12/06 05:06:14;;;;;;;50.83;24.70;;;2.80;99.90;;;;;;2097649;68;20953;-72
2021/12/06 05:09:02;;;;;;;46.00;25.90;;;2.90;99.90;;;;;;2099500;68;20410;-72
2021/12/06 05:11:47;;;;;;;50.15;26.00;;;2.90;99.90;;;;;;2111661;67;20222;-71
2021/12/06 05:14:31;;;;;;;47.85;26.42;;;2.90;99.90;;;;;;2107360;67;20608;-72
2021/12/06 05:17:14;;;;;;;57.45;26.95;;;2.90;99.90;;;;;;2107133;67;20169;-73
2021/12/06 05:19:55;;;;;;;52.95;27.42;;;2.90;99.90;;;;;;2109116;67;20233;-72
2021/12/06 05:22:39;;;;;;;49.08;25.63;;;2.90;99.90;;;;;;2104225;67;20431;-74
2021/12/06 05:25:26;;;;;;;48.80;24.98;;;2.80;99.90;;;;;;2097381;68;20199;-73
2021/12/06 05:28:11;;;;;;;41.05;22.05;;;2.90;99.90;;;;;;2097303;68;20391;-73
2021/12/06 05:34:27;;;;;;;;;;;3.60;99.90;;;;;;2096324;68;20234;-74
2021/12/06 05:37:13;;;;;;;47.63;24.02;;;2.80;99.90;;;;;;2091233;68;20548;-72
2021/12/06 05:39:57;;;;;;;42.38;24.75;;;2.80;99.90;;;;;;2099590;68;20335;-73
2021/12/06 05:42:40;;;;;;;;;;;2.80;99.90;;;;;;2114613;67;20231;-72
2021/12/06 05:45:25;;;;;;;46.72;24.05;;;2.80;99.90;;;;;;2123046;67;20209;-72
2021/12/06 05:48:08;;;;;;;43.22;24.02;;;2.80;99.90;;;;;;2125854;67;20373;-72
2021/12/06 05:50:50;;;;;;;47.35;25.08;;;2.80;99.90;;;;;;2115274;67;20207;-73
2021/12/06 05:53:32;;;;;;;50.80;25.13;;;2.80;99.90;;;;;;2106917;67;20241;-72
2021/12/06 05:56:14;;;;;;;50.10;25.75;;;2.90;99.90;;;;;;2120923;67;21808;-72
2021/12/06 05:58:56;;;;;;;47.00;24.10;;;2.90;99.90;;;;;;2106043;67;20207;-72
2021/12/06 06:01:38;;;;;;;51.08;26.33;;;2.90;99.90;;;;;;2105552;67;20673;-72
2021/12/06 06:04:20;;;;;;;56.83;27.65;;;2.90;99.90;;;;;;2104212;67;20478;-74
2021/12/06 06:07:03;;;;;;;53.15;25.42;;;2.90;99.90;;;;;;2104114;67;20170;-73
2021/12/06 06:09:45;;;;;;;58.60;28.50;;;2.90;99.90;;;;;;2103966;67;20685;-72
2021/12/06 06:12:27;;;;;;;54.25;28.75;;;2.90;99.90;;;;;;2100773;68;20430;-72
2021/12/06 06:15:08;;;;;;;59.13;26.75;;;2.90;99.90;;;;;;2092581;68;20187;-72
2021/12/06 06:17:50;;;;;;;51.65;26.60;;;2.90;99.90;;;;;;2090088;68;20172;-72
2021/12/06 06:20:39;;;;;;;49.38;25.27;;;3.00;99.90;;;;;;2103700;68;20198;-71
2021/12/06 06:23:22;;;;;;;50.38;25.90;;;3.30;99.90;;;;;;2109003;67;20465;-72
2021/12/06 06:26:03;;;;;;;49.40;24.83;;;2.90;99.90;;;;;;2106140;67;20210;-71
2021/12/06 06:28:46;;;;;;;55.53;26.35;;;2.90;99.90;;;;;;2110469;67;20446;-73
2021/12/06 06:31:31;;;;;;;47.10;26.80;;;2.90;99.90;;;;;;2108979;67;20343;-71
2021/12/06 06:34:12;;;;;;;42.70;25.00;;;3.00;99.90;;;;;;2107688;67;20585;-72
2021/12/06 06:36:56;;;;;;;46.38;24.52;;;2.90;99.90;;;;;;2116180;67;20467;-71
2021/12/06 06:39:38;;;;;;;44.28;22.63;;;3.00;99.90;;;;;;2118590;67;20325;-72
2021/12/06 06:42:23;;;;;;;46.80;24.17;;;3.00;99.90;;;;;;2131065;67;20808;-71
2021/12/06 06:45:09;;;;;;;41.78;22.52;;;3.00;99.90;;;;;;2123233;67;20172;-73
2021/12/06 06:47:51;;;;;;;47.72;22.95;;;3.00;99.90;;;;;;2117624;67;20180;-72
2021/12/06 06:50:33;;;;;;;46.15;24.15;;;3.50;99.90;;;;;;2119818;67;20326;-72
2021/12/06 06:53:15;;;;;;;44.30;22.90;;;3.00;99.90;;;;;;2122997;67;20312;-70
2021/12/06 06:56:00;;;;;;;44.47;23.17;;;2.90;99.90;;;;;;2116393;67;20249;-70
2021/12/06 06:58:43;;;;;;;44.20;23.77;;;2.90;99.90;;;;;;2117250;67;20180;-71
2021/12/06 07:01:28;;;;;;;44.55;24.30;;;2.90;99.90;;;;;;2107257;67;20768;-71
2021/12/06 07:04:14;;;;;;;45.92;23.77;;;2.90;99.90;;;;;;2110452;67;20319;-73
2021/12/06 07:06:57;;;;;;;44.67;23.10;;;2.90;99.90;;;;;;2117324;67;20308;-71
2021/12/06 07:09:43;;;;;;;49.08;25.67;;;2.90;99.90;;;;;;2123878;67;20229;-70
2021/12/06 07:12:26;;;;;;;49.60;25.27;;;2.90;99.90;;;;;;2116065;67;20354;-69
2021/12/06 07:15:14;;;;;;;47.53;24.10;;;2.80;99.90;;;;;;2108056;67;20177;-71
2021/12/06 07:17:56;;;;;;;39.72;22.83;;;2.80;99.90;;;;;;2106930;67;20190;-70
2021/12/06 07:20:42;;;;;;;48.38;24.40;;;2.80;99.90;;;;;;2124524;67;20729;-70
2021/12/06 07:23:26;;;;;;;50.03;24.40;;;2.70;99.90;;;;;;2119077;67;20334;-69
2021/12/06 07:26:17;;;;;;;51.05;26.67;;;2.70;99.90;;;;;;2109880;67;20178;-68
2021/12/06 07:29:01;;;;;;;54.38;27.63;;;2.70;99.90;;;;;;2110041;67;20225;-69
2021/12/06 07:31:43;;;;;;;49.25;25.02;;;3.50;99.90;;;;;;2109310;67;20604;-68
2021/12/06 07:34:25;;;;;;;50.92;24.60;;;2.80;99.90;;;;;;2110876;67;20225;-70
2021/12/06 07:37:07;;;;;;;49.40;25.15;;;2.70;99.90;;;;;;2098120;68;20175;-69
2021/12/06 07:39:49;;;;;;;41.97;22.80;;;2.70;99.90;;;;;;2094925;68;20364;-69
2021/12/06 07:42:32;;;;;;;45.25;24.13;;;2.70;99.90;;;;;;2100536;67;20232;-69
2021/12/06 07:45:17;;;;;;;44.28;22.50;;;2.70;99.90;;;;;;2098701;68;20386;-69
2021/12/06 07:47:59;;;;;;;44.40;22.67;;;2.70;99.90;;;;;;2096173;68;20182;-69
2021/12/06 07:50:40;;;;;;;46.28;23.73;;;2.70;99.90;;;;;;2089790;68;20201;-68
2021/12/06 07:53:23;;;;;;;46.33;23.25;;;2.70;99.90;;;;;;2095990;68;20171;-68
2021/12/06 07:56:08;;;;;;;41.38;22.45;;;2.70;99.90;;;;;;2082925;68;20405;-71
2021/12/06 07:58:50;;;;;;;44.08;22.40;;;2.80;99.90;;;;;;2089826;68;20231;-68
2021/12/06 08:01:33;;;;;;;51.70;23.42;;;2.80;99.90;;;;;;2095083;68;20328;-70
2021/12/06 08:04:12;;;;;;;44.75;22.88;;;2.80;99.90;;;;;;2103968;67;20194;-70
2021/12/06 08:07:02;;;;;;;44.78;21.80;;;2.80;99.90;;;;;;2117627;67;20695;-72
2021/12/06 08:09:39;;;;;;;52.42;25.10;;;2.80;99.90;;;;;;2112775;67;20726;-70
2021/12/06 08:12:15;;;;;;;47.30;22.75;;;2.80;99.90;;;;;;2117664;67;20689;-71
2021/12/06 08:14:52;;;;;;;49.65;23.85;;;2.80;99.90;;;;;;2124678;67;20207;-68
2021/12/06 08:17:42;;;;;;;50.47;25.00;;;2.80;99.90;;;;;;2138131;67;20353;-69
2021/12/06 08:20:21;;;;;;;50.20;25.13;;;3.10;99.90;;;;;;2138727;67;20204;-70
2021/12/06 08:22:57;;;;;;;47.45;24.58;;;2.90;99.90;;;;;;2138196;66;20277;-68
2021/12/06 08:25:48;;;;;;;56.05;25.70;;;2.90;99.90;;;;;;2141507;66;20295;-71
2021/12/06 08:28:28;;;;;;;50.70;25.33;;;2.90;99.90;;;;;;2131644;67;20318;-71
2021/12/06 08:31:08;;;;;;;56.00;25.80;;;2.90;99.90;;;;;;2131493;67;20234;-71
2021/12/06 08:33:49;;;;;;;46.08;23.15;;;2.90;99.90;;;;;;2136956;66;20257;-71
2021/12/06 08:36:41;;;;;;;52.05;23.52;;;3.20;99.90;;;;;;2140989;66;20255;-71
2021/12/06 08:39:20;;;;;;;52.30;24.40;;;3.10;99.90;;;;;;2160740;66;20608;-72
2021/12/06 08:42:11;;;;;;;49.22;24.48;;;2.90;99.90;;;;;;2169069;66;20311;-73
2021/12/06 08:44:47;;;;;;;48.28;25.75;;;2.90;99.90;;;;;;2182734;65;20267;-71
2021/12/06 08:47:24;;;;;;;50.58;25.15;;;3.00;99.90;;;;;;2184190;65;20402;-72
2021/12/06 08:50:00;;;;;;;54.72;25.27;;;3.00;99.90;;;;;;2188008;65;20186;-71
2021/12/06 08:52:54;;;;;;;48.75;24.30;;;3.00;99.90;;;;;;2183820;65;20192;-71
2021/12/06 08:55:33;;;;;;;48.58;23.90;;;3.00;99.90;;;;;;2187956;65;20301;-71
2021/12/06 08:58:09;;;;;;;49.78;24.15;;;3.00;99.90;;;;;;2190330;65;20327;-70
2021/12/06 09:01:03;;;;;;;52.38;24.58;;;3.10;99.90;;;;;;2168339;65;20341;-70
2021/12/06 09:03:46;;;;;;;46.67;25.17;;;3.10;99.90;;;;;;2168789;65;20206;-72
2021/12/06 09:06:34;;;;;;;47.38;24.48;;;3.10;99.90;;;;;;2169296;65;20244;-73
2021/12/06 09:09:16;;;;;;;43.85;23.17;;;3.10;99.90;;;;;;2162603;66;20206;-71
2021/12/06 09:11:59;;;;;;;45.97;22.52;;;3.10;99.90;;;;;;2139527;66;20175;-71
2021/12/06 09:14:44;;;;;;;45.17;22.52;;;3.10;99.90;;;;;;2146564;66;20751;-71
2021/12/06 09:17:28;;;;;;;41.85;21.40;;;3.20;99.90;;;;;;2139200;67;20367;-71
2021/12/06 09:20:13;;;;;;;47.50;23.23;;;3.30;99.90;;;;;;2143087;66;20269;-72
2021/12/06 09:22:58;;;;;;;38.23;21.43;;;3.30;99.90;;;;;;2139278;66;20183;-69
2021/12/06 09:25:44;;;;;;;40.30;20.55;;;3.30;99.90;;;;;;2131971;67;20231;-73
2021/12/06 09:28:25;;;;;;;41.65;19.15;;;3.40;99.90;;;;;;2113037;67;20260;-70
2021/12/06 09:31:09;;;;;;;38.83;18.98;;;3.50;99.90;;;;;;2110618;67;20401;-70
2021/12/06 09:33:51;;;;;;;37.65;19.55;;;3.50;99.90;;;;;;2122338;67;20339;-71
2021/12/06 09:36:33;;;;;;;39.25;19.88;;;3.50;99.90;;;;;;2124422;67;20199;-73
2021/12/06 09:39:15;;;;;;;37.95;20.50;;;3.50;99.90;;;;;;2115477;67;20366;-72
2021/12/06 09:41:58;;;;;;;36.25;18.70;;;3.50;99.90;;;;;;2125134;67;20172;-72
2021/12/06 09:44:40;;;;;;;34.95;19.10;;;3.70;99.90;;;;;;2117377;67;20228;-72
2021/12/06 09:47:22;;;;;;;35.42;20.52;;;3.90;99.90;;;;;;2111296;67;20173;-71
2021/12/06 09:50:06;;;;;;;40.25;19.42;;;3.70;99.90;;;;;;2105298;67;20492;-71
2021/12/06 09:52:48;;;;;;;36.05;19.25;;;3.70;99.90;;;;;;2114247;67;20730;-72
2021/12/06 09:55:32;;;;;;;35.30;18.45;;;3.70;99.90;;;;;;2111554;67;20682;-70
2021/12/06 09:58:15;;;;;;;35.30;17.92;;;3.70;99.90;;;;;;2123942;67;20321;-71
2021/12/06 10:01:07;;;;;;;35.67;18.88;;;3.70;99.90;;;;;;2140038;66;20254;-72
2021/12/06 10:04:01;;;;;;;33.17;18.88;;;3.70;99.90;;;;;;2144030;66;20174;-72
2021/12/06 10:06:49;;;;;;;27.40;15.48;;;3.70;99.90;;;;;;2132878;67;20256;-71
2021/12/06 10:09:35;;;;;;;30.85;16.30;;;3.70;99.90;;;;;;2118878;67;20357;-70
2021/12/06 10:12:17;;;;;;;34.75;17.48;;;4.20;99.90;;;;;;2130094;67;20731;-71
2021/12/06 10:15:10;;;;;;;27.85;15.02;;;3.60;99.90;;;;;;2127820;67;20831;-71
2021/12/06 10:17:55;;;;;;;30.02;15.65;;;3.60;99.90;;;;;;2115273;67;20177;-70
2021/12/06 10:20:37;;;;;;;33.20;16.98;;;3.50;99.90;;;;;;2098970;67;20363;-70
2021/12/06 10:23:19;;;;;;;31.40;15.98;;;3.50;99.90;;;;;;2089330;68;20346;-70
2021/12/06 10:26:02;;;;;;;30.40;16.27;;;3.40;99.90;;;;;;2086943;68;20262;-72
2021/12/06 10:28:47;;;;;;;30.58;16.80;;;3.40;99.90;;;;;;2080017;68;20402;-70
2021/12/06 10:31:30;;;;;;;29.98;16.40;;;3.30;99.90;;;;;;2081978;68;20214;-71
2021/12/06 10:34:27;;;;;;;26.58;15.60;;;3.30;99.90;;;;;;2073704;68;20442;-71
2021/12/06 10:37:35;;;;;;;29.30;16.63;;;3.30;99.90;;;;;;2067310;69;20287;-71
2021/12/06 10:40:23;;;;;;;25.67;15.02;;;3.40;99.90;;;;;;2058552;69;20322;-74
2021/12/06 10:43:10;;;;;;;30.30;16.35;;;3.30;99.90;;;;;;2073900;68;20281;-72
2021/12/06 10:45:54;;;;;;;29.73;16.17;;;3.40;99.90;;;;;;2075706;68;20828;-72
2021/12/06 10:48:48;;;;;;;30.60;15.93;;;3.40;99.90;;;;;;2081076;68;20202;-71
2021/12/06 10:51:34;;;;;;;25.80;15.60;;;3.50;99.90;;;;;;2094297;67;20171;-72
2021/12/06 10:54:35;;;;;;;32.55;17.55;;;3.50;99.90;;;;;;2099185;67;20371;-72
2021/12/06 10:57:18;;;;;;;28.65;15.73;;;3.50;99.90;;;;;;2101781;67;20611;-72
2021/12/06 11:00:00;;;;;;;27.10;15.73;;;3.50;99.90;;;;;;2104080;67;20178;-71
2021/12/06 11:02:51;;;;;;;26.17;16.15;;;3.50;99.90;;;;;;2084169;68;20297;-72
2021/12/06 11:05:36;;;;;;;31.50;17.00;;;3.50;99.90;;;;;;2070971;69;20771;-72
2021/12/06 11:08:27;;;;;;;27.70;15.52;;;3.50;99.90;;;;;;2080392;68;20258;-70
2021/12/06 11:11:19;;;;;;;29.80;17.45;;;3.50;99.90;;;;;;2076056;68;20173;-71
2021/12/06 11:14:10;;;;;;;28.80;15.73;;;3.50;99.90;;;;;;2073771;68;20275;-73
2021/12/06 11:16:56;;;;;;;32.25;15.88;;;3.50;99.90;;;;;;2080007;68;20355;-72
2021/12/06 11:19:39;;;;;;;33.22;16.08;;;3.50;99.90;;;;;;2089013;68;20509;-72
2021/12/06 11:22:25;;;;;;;28.52;15.05;;;3.50;99.90;;;;;;2092756;68;20277;-72
2021/12/06 11:25:10;;;;;;;28.42;15.52;;;3.60;99.90;;;;;;2096081;67;20255;-70
2021/12/06 11:27:52;;;;;;;30.42;16.58;;;3.60;99.90;;;;;;2102398;67;20877;-71
2021/12/06 11:30:35;;;;;;;36.83;19.45;;;3.50;99.90;;;;;;2105003;67;20407;-71
2021/12/06 11:33:30;;;;;;;35.83;18.55;;;3.40;99.90;;;;;;2096218;68;20216;-70
2021/12/06 11:36:30;;;;;;;36.05;18.58;;;3.40;99.90;;;;;;2111784;67;20451;-70
2021/12/06 11:39:19;;;;;;;39.88;20.88;;;3.40;99.90;;;;;;2101966;67;20203;-70
2021/12/06 11:42:01;;;;;;;41.25;21.77;;;3.40;99.90;;;;;;2094783;68;20201;-70
2021/12/06 11:44:46;;;;;;;41.65;21.48;;;3.40;99.90;;;;;;2109191;67;20190;-69
2021/12/06 11:47:28;;;;;;;38.95;20.30;;;3.30;99.90;;;;;;2105125;67;20311;-71
2021/12/06 11:50:13;;;;;;;34.05;19.02;;;3.30;99.90;;;;;;2094262;68;20888;-72
2021/12/06 11:52:56;;;;;;;32.47;19.27;;;3.30;99.90;;;;;;2095186;68;20206;-72
2021/12/06 11:55:55;;;;;;;30.10;17.27;;;3.40;99.90;;;;;;2081886;68;21176;-69
2021/12/06 11:58:46;;;;;;;31.58;16.25;;;3.50;99.90;;;;;;2088379;68;20223;-69
2021/12/06 12:01:37;;;;;;;29.73;17.35;;;3.50;99.90;;;;;;2081939;68;20258;-73
2021/12/06 12:04:24;;;;;;;28.75;15.07;;;3.60;99.90;;;;;;2084545;68;20660;-72
2021/12/06 12:07:08;;;;;;;31.63;17.60;;;3.60;99.90;;;;;;2075144;68;20236;-76
2021/12/06 12:09:59;;;;;;;31.08;16.10;;;3.70;99.90;;;;;;2076865;68;20267;-74
2021/12/06 12:12:53;;;;;;;29.80;16.38;;;3.80;99.90;;;;;;2075138;68;20670;-74
2021/12/06 12:15:39;;;;;;;27.15;16.05;;;3.80;99.90;;;;;;2072895;68;20368;-73
2021/12/06 12:18:26;;;;;;;27.25;15.45;;;3.90;99.90;;;;;;2079564;68;20377;-71
2021/12/06 12:21:28;;;;;;;31.67;16.02;;;4.00;99.90;;;;;;2109745;67;20366;-71
2021/12/06 12:24:13;;;;;;;24.00;14.00;;;4.00;99.90;;;;;;2116055;67;20221;-73
2021/12/06 12:27:03;;;;;;;19.45;12.23;;;4.10;99.90;;;;;;2123748;67;20404;-72
2021/12/06 12:29:51;;;;;;;24.65;13.60;;;4.10;99.90;;;;;;2124749;67;20234;-73
2021/12/06 12:32:37;;;;;;;19.60;12.55;;;4.00;99.90;;;;;;2131514;67;20218;-73
2021/12/06 12:35:19;;;;;;;25.27;13.93;;;3.90;99.90;;;;;;2124655;67;20763;-72
2021/12/06 12:38:04;;;;;;;24.73;13.90;;;3.90;99.90;;;;;;2118772;67;20255;-70
2021/12/06 12:40:50;;;;;;;23.48;13.68;;;3.90;99.90;;;;;;2124281;67;20192;-72
2021/12/06 12:43:44;;;;;;;25.60;14.48;;;3.90;99.90;;;;;;2121198;67;20169;-70
2021/12/06 12:46:35;;;;;;;24.15;14.50;;;3.90;99.90;;;;;;2120022;67;20202;-70
2021/12/06 12:49:21;;;;;;;28.88;14.65;;;3.80;99.90;;;;;;2110973;67;20260;-72
2021/12/06 12:52:06;;;;;;;26.70;15.93;;;3.80;99.90;;;;;;2108090;67;20198;-70
2021/12/06 12:54:57;;;;;;;28.40;16.13;;;3.80;99.90;;;;;;2096101;68;20250;-70
2021/12/06 12:57:45;;;;;;;29.27;14.50;;;3.80;99.90;;;;;;2092974;68;20226;-70
2021/12/06 13:00:31;;;;;;;30.45;15.20;;;3.80;99.90;;;;;;2095889;68;20240;-72
2021/12/06 13:03:31;;;;;;;28.65;15.77;;;3.70;99.90;;;;;;2094821;68;20203;-70
2021/12/06 13:06:26;;;;;;;27.20;15.13;;;3.80;99.90;;;;;;2088555;68;20683;-72
2021/12/06 13:09:28;;;;;;;25.20;14.48;;;3.70;99.90;;;;;;2095211;68;20406;-73
2021/12/06 13:12:11;;;;;;;30.58;15.05;;;4.00;99.90;;;;;;2083613;68;20278;-71
2021/12/06 13:14:58;;;;;;;25.73;16.13;;;3.70;99.90;;;;;;2089902;68;20264;-70
2021/12/06 13:17:48;;;;;;;29.10;15.18;;;3.80;99.90;;;;;;2078833;68;20243;-71
2021/12/06 13:20:37;;;;;;;27.27;15.27;;;3.70;99.90;;;;;;2089029;68;20172;-71
2021/12/06 13:23:26;;;;;;;33.53;16.20;;;3.80;99.90;;;;;;2093680;68;20338;-72
2021/12/06 13:26:09;;;;;;;33.60;16.63;;;3.80;99.90;;;;;;2078897;68;20425;-71
2021/12/06 13:29:07;;;;;;;29.40;16.17;;;3.80;99.90;;;;;;2083307;68;20263;-70
2021/12/06 13:31:50;;;;;;;31.85;16.52;;;3.80;99.90;;;;;;2083611;68;20214;-75
2021/12/06 13:34:35;;;;;;;30.05;16.33;;;3.80;99.90;;;;;;2086550;68;20280;-71
2021/12/06 13:37:26;;;;;;;32.88;18.33;;;3.80;99.90;;;;;;2102214;67;20437;-73
2021/12/06 13:40:19;;;;;;;35.75;17.95;;;3.80;99.90;;;;;;2103328;67;20443;-70
2021/12/06 13:43:18;;;;;;;35.30;19.77;;;3.70;99.90;;;;;;2099984;67;20489;-73
2021/12/06 13:46:10;;;;;;;38.60;18.75;;;3.80;99.90;;;;;;2109178;67;20465;-75
2021/12/06 13:49:16;;;;;;;38.63;19.70;;;3.70;99.90;;;;;;2096407;67;20206;-75
2021/12/06 13:52:12;;;;;;;40.15;20.75;;;3.70;99.90;;;;;;2094650;68;20369;-78
2021/12/06 13:54:59;;;;;;;40.00;20.90;;;3.70;99.90;;;;;;2097273;68;20374;-71
2021/12/06 13:57:51;;;;;;;39.83;21.90;;;3.70;99.90;;;;;;2094787;68;25151;-71
2021/12/06 14:00:42;;;;;;;41.42;21.45;;;3.80;99.90;;;;;;2091069;68;20299;-72
2021/12/06 14:03:29;;;;;;;41.10;21.92;;;3.80;99.90;;;;;;2089456;68;20183;-71
2021/12/06 14:06:16;;;;;;;42.95;21.75;;;3.80;99.90;;;;;;2103174;68;20270;-71
2021/12/06 14:09:01;;;;;;;43.25;22.50;;;3.80;99.90;;;;;;2089423;68;20176;-71
2021/12/06 14:11:45;;;;;;;39.80;21.98;;;3.80;99.90;;;;;;2089882;68;20336;-73
2021/12/06 14:14:26;;;;;;;45.15;23.00;;;3.60;99.90;;;;;;2093511;68;20191;-69
2021/12/06 14:17:02;;;;;;;40.08;22.38;;;3.80;99.90;;;;;;2102889;67;20213;-70
2021/12/06 14:19:39;;;;;;;54.38;25.65;;;3.70;99.90;;;;;;2115117;67;20196;-71
2021/12/06 14:22:20;;;;;;;46.10;23.13;;;3.70;99.90;;;;;;2123013;67;20325;-70
2021/12/06 14:25:03;;;;;;;46.85;23.33;;;3.70;99.90;;;;;;2121590;67;20700;-71
2021/12/06 14:27:40;;;;;;;44.63;23.48;;;3.70;99.90;;;;;;2130457;67;20243;-70
2021/12/06 14:30:24;;;;;;;44.75;24.25;;;3.70;99.90;;;;;;2137319;66;20312;-71
2021/12/06 14:33:14;;;;;;;47.65;25.70;;;4.10;99.90;;;;;;2149184;66;20185;-69